Time;durP1;ratioP1;P1;durP2;ratioP2;P2;SDS_P1;SDS_P2;PMS_P1;PMS_P2;Temp;Humidity;BMP_temperature;BMP_pressure;BME280_temperature;BME280_humidity;BME280_pressure;Samples;Min_cycle;Max_cycle;Signal;HPM_P1;HPM_P2
2023/04/16 00:01:13;;;;;;;38.97;25.27;;;9.40;99.90;;;;;;6255478;28;20111;-83
2023/04/16 00:04:15;;;;;;;41.70;23.13;;;9.40;99.90;;;;;;6255276;28;20045;-82
2023/04/16 00:07:18;;;;;;;41.35;23.23;;;9.40;99.90;;;;;;6254425;28;20771;-82
2023/04/16 00:10:20;;;;;;;44.55;23.60;;;9.40;99.90;;;;;;6253954;28;20056;-82
2023/04/16 00:13:22;;;;;;;43.22;26.02;;;9.40;99.90;;;;;;6253602;28;20116;-83
2023/04/16 00:16:24;;;;;;;43.05;24.63;;;9.30;99.90;;;;;;6253646;28;20049;-82
2023/04/16 00:19:25;;;;;;;43.33;25.40;;;9.30;99.90;;;;;;6250503;28;20041;-83
2023/04/16 00:22:28;;;;;;;41.17;24.27;;;9.30;99.90;;;;;;6252887;28;20050;-83
2023/04/16 00:25:30;;;;;;;48.42;26.95;;;9.20;99.90;;;;;;6253690;28;20049;-82
2023/04/16 00:28:31;;;;;;;46.10;25.15;;;9.20;99.90;;;;;;6253252;28;20046;-83
2023/04/16 00:31:34;;;;;;;44.10;24.23;;;9.20;99.90;;;;;;6252913;28;20211;-83
2023/04/16 00:34:35;;;;;;;46.80;26.70;;;9.20;99.90;;;;;;6253647;28;20508;-82
2023/04/16 00:37:38;;;;;;;47.63;24.83;;;9.30;99.90;;;;;;6253481;28;20523;-82
2023/04/16 00:40:40;;;;;;;45.22;27.17;;;9.30;99.90;;;;;;6261157;28;20059;-82
2023/04/16 00:43:42;;;;;;;48.10;25.52;;;9.30;99.90;;;;;;6256733;28;20045;-82
2023/04/16 00:46:44;;;;;;;45.65;25.98;;;9.30;99.90;;;;;;6257037;28;20049;-83
2023/04/16 00:49:46;;;;;;;55.45;27.95;;;9.30;99.90;;;;;;6257720;28;20053;-83
2023/04/16 00:52:49;;;;;;;45.83;25.27;;;9.30;99.90;;;;;;6256403;28;20037;-83
2023/04/16 00:55:51;;;;;;;44.30;25.65;;;9.30;99.90;;;;;;6257030;28;20060;-82
2023/04/16 00:58:55;;;;;;;47.05;26.00;;;9.30;99.90;;;;;;6257347;28;20042;-83
2023/04/16 01:01:56;;;;;;;44.17;23.35;;;9.30;99.90;;;;;;6257998;28;20063;-82
2023/04/16 01:04:58;;;;;;;50.38;26.02;;;9.30;99.90;;;;;;6256162;28;20144;-82
2023/04/16 01:08:01;;;;;;;43.55;26.98;;;9.30;99.90;;;;;;6257353;28;20046;-83
2023/04/16 01:11:04;;;;;;;43.90;26.40;;;9.30;99.90;;;;;;6257086;28;20069;-82
2023/04/16 01:14:05;;;;;;;54.72;27.73;;;9.30;99.90;;;;;;6257347;28;20045;-83
2023/04/16 01:17:07;;;;;;;49.95;25.33;;;9.30;99.90;;;;;;6256964;28;20059;-83
2023/04/16 01:20:10;;;;;;;45.13;24.13;;;9.30;99.90;;;;;;6257333;28;20049;-83
2023/04/16 01:23:13;;;;;;;49.78;26.67;;;9.30;99.90;;;;;;6258233;28;20045;-82
2023/04/16 01:26:15;;;;;;;49.25;25.33;;;9.30;99.90;;;;;;6262856;28;20053;-82
2023/04/16 01:29:17;;;;;;;45.22;26.30;;;9.30;99.90;;;;;;6264788;28;20095;-82
2023/04/16 01:32:18;;;;;;;50.20;26.70;;;9.30;99.90;;;;;;6263919;28;20045;-82
2023/04/16 01:35:20;;;;;;;49.45;27.05;;;9.30;99.90;;;;;;6261214;28;20048;-82
2023/04/16 01:38:23;;;;;;;54.33;26.92;;;9.30;99.90;;;;;;6261476;28;20053;-82
2023/04/16 01:41:25;;;;;;;48.60;25.85;;;9.30;99.90;;;;;;6261399;28;20049;-82
2023/04/16 01:44:26;;;;;;;48.92;26.10;;;9.40;99.90;;;;;;6264316;28;20045;-82
2023/04/16 01:47:28;;;;;;;46.60;24.40;;;9.40;99.90;;;;;;6289024;28;20053;-82
2023/04/16 01:50:30;;;;;;;49.03;26.50;;;9.40;99.90;;;;;;6289241;28;20049;-82
2023/04/16 01:53:33;;;;;;;43.65;26.67;;;9.40;99.90;;;;;;6288696;28;20051;-82
2023/04/16 01:56:35;;;;;;;48.00;27.73;;;9.40;99.90;;;;;;6289108;28;20044;-82
2023/04/16 01:59:37;;;;;;;44.60;24.77;;;9.40;99.90;;;;;;6268130;28;20128;-82
2023/04/16 02:02:39;;;;;;;50.33;27.13;;;9.40;99.90;;;;;;6264455;28;20045;-82
2023/04/16 02:05:40;;;;;;;46.00;23.98;;;9.30;99.90;;;;;;6262798;28;20049;-82
2023/04/16 02:08:43;;;;;;;45.55;27.45;;;9.30;99.90;;;;;;6263590;28;20041;-83
2023/04/16 02:11:45;;;;;;;47.40;26.25;;;9.30;99.90;;;;;;6263029;28;20049;-81
2023/04/16 02:14:47;;;;;;;44.67;27.58;;;9.30;99.90;;;;;;6260737;28;20388;-83
2023/04/16 02:17:53;;;;;;;42.88;26.35;;;9.30;99.90;;;;;;6263963;28;20785;-82
2023/04/16 02:20:58;;;;;;;45.75;27.08;;;9.30;99.90;;;;;;6263060;28;20049;-81
2023/04/16 02:24:01;;;;;;;49.22;26.40;;;9.20;99.90;;;;;;6261222;28;20045;-82
2023/04/16 02:27:03;;;;;;;42.70;24.90;;;9.20;99.90;;;;;;6264043;28;20042;-81
2023/04/16 02:30:06;;;;;;;52.97;28.52;;;9.20;99.90;;;;;;6263936;28;20049;-82
2023/04/16 02:33:09;;;;;;;48.22;28.00;;;9.20;99.90;;;;;;6263319;28;20068;-82
2023/04/16 02:36:11;;;;;;;48.25;25.25;;;9.20;99.90;;;;;;6264105;28;20110;-82
2023/04/16 02:39:14;;;;;;;50.35;27.70;;;9.20;99.90;;;;;;6262560;28;20064;-82
2023/04/16 02:42:16;;;;;;;50.60;25.58;;;9.20;99.90;;;;;;6259550;28;20049;-80
2023/04/16 02:45:18;;;;;;;48.50;27.73;;;9.20;99.90;;;;;;6260622;28;20356;-81
2023/04/16 02:48:19;;;;;;;48.38;26.92;;;9.20;99.90;;;;;;6261576;28;20049;-82
2023/04/16 02:51:21;;;;;;;49.22;26.05;;;9.20;99.90;;;;;;6261114;28;20053;-82
2023/04/16 02:54:24;;;;;;;54.40;26.85;;;9.20;99.90;;;;;;6260079;28;20059;-82
2023/04/16 02:57:26;;;;;;;56.90;28.80;;;9.20;99.90;;;;;;6259766;28;20053;-81
2023/04/16 03:00:28;;;;;;;48.00;28.67;;;9.20;99.90;;;;;;6258682;28;20057;-81
2023/04/16 03:03:29;;;;;;;56.83;27.23;;;9.20;99.90;;;;;;6257407;28;20147;-81
2023/04/16 03:06:31;;;;;;;59.03;30.38;;;9.10;99.90;;;;;;6258327;28;20499;-81
2023/04/16 03:09:34;;;;;;;53.55;29.45;;;9.10;99.90;;;;;;6259024;28;20055;-81
2023/04/16 03:12:36;;;;;;;52.72;28.90;;;9.10;99.90;;;;;;6257896;28;20459;-82
2023/04/16 03:15:38;;;;;;;62.67;31.63;;;9.10;99.90;;;;;;6257387;28;20060;-83
2023/04/16 03:18:39;;;;;;;58.58;29.80;;;9.10;99.90;;;;;;6256720;28;20147;-83
2023/04/16 03:21:41;;;;;;;52.03;28.83;;;9.10;99.90;;;;;;6259568;28;20066;-82
2023/04/16 03:24:44;;;;;;;46.80;27.23;;;9.10;99.90;;;;;;6258331;28;20049;-83
2023/04/16 03:27:46;;;;;;;50.53;28.33;;;9.20;99.90;;;;;;6259219;28;20045;-81
2023/04/16 03:30:51;;;;;;;52.85;28.17;;;9.20;99.90;;;;;;6259152;28;20041;-82
2023/04/16 03:33:53;;;;;;;52.20;27.40;;;9.20;99.90;;;;;;6255857;28;20181;-81
2023/04/16 03:36:55;;;;;;;51.15;27.33;;;9.20;99.90;;;;;;6254563;28;20053;-81
2023/04/16 03:39:58;;;;;;;49.15;26.17;;;9.20;99.90;;;;;;6253721;28;20603;-81
2023/04/16 03:42:59;;;;;;;51.60;28.10;;;9.20;99.90;;;;;;6253603;28;20042;-83
2023/04/16 03:46:01;;;;;;;48.65;27.35;;;9.20;99.90;;;;;;6265413;28;20056;-81
2023/04/16 03:49:03;;;;;;;47.58;26.90;;;9.30;99.90;;;;;;6277471;28;20052;-81
2023/04/16 03:52:05;;;;;;;46.05;25.92;;;9.30;99.90;;;;;;6268215;28;20060;-81
2023/04/16 03:55:08;;;;;;;50.40;25.80;;;9.30;99.90;;;;;;6256093;28;20496;-83
2023/04/16 03:58:10;;;;;;;50.45;27.25;;;9.30;99.90;;;;;;6256993;28;20050;-81
2023/04/16 04:01:12;;;;;;;46.83;26.95;;;9.30;99.90;;;;;;6259930;28;20049;-81
2023/04/16 04:04:14;;;;;;;46.28;25.35;;;9.30;99.90;;;;;;6258465;28;20052;-79
2023/04/16 04:07:16;;;;;;;50.47;25.20;;;9.40;99.90;;;;;;6258977;28;20498;-80
2023/04/16 04:10:19;;;;;;;52.80;25.80;;;9.40;99.90;;;;;;6258691;28;20053;-80
2023/04/16 04:13:20;;;;;;;43.63;25.17;;;9.40;99.90;;;;;;6258513;28;20045;-83
2023/04/16 04:16:22;;;;;;;45.47;26.63;;;9.40;99.90;;;;;;6259731;28;20042;-83
2023/04/16 04:19:24;;;;;;;49.67;25.23;;;9.40;99.90;;;;;;6260432;28;20053;-83
2023/04/16 04:22:25;;;;;;;43.88;25.90;;;9.40;99.90;;;;;;6259794;28;20071;-83
2023/04/16 04:25:29;;;;;;;44.78;25.80;;;9.40;99.90;;;;;;6259944;28;20056;-83
2023/04/16 04:28:31;;;;;;;47.00;25.20;;;9.40;99.90;;;;;;6260094;28;20050;-83
2023/04/16 04:31:32;;;;;;;44.33;24.27;;;9.40;99.90;;;;;;6257576;28;20056;-81
2023/04/16 04:34:34;;;;;;;41.40;22.00;;;9.40;99.90;;;;;;6259061;28;20037;-84
2023/04/16 04:37:36;;;;;;;37.55;21.45;;;9.40;99.90;;;;;;6259799;28;20046;-84
2023/04/16 04:40:39;;;;;;;43.53;23.83;;;9.40;99.90;;;;;;6259357;28;20068;-84
2023/04/16 04:43:40;;;;;;;41.80;21.88;;;9.40;99.90;;;;;;6259128;28;20042;-84
2023/04/16 04:46:42;;;;;;;40.97;20.70;;;9.40;99.90;;;;;;6259420;28;20096;-84
2023/04/16 04:49:44;;;;;;;36.83;20.95;;;9.50;99.90;;;;;;6259190;28;20056;-83
2023/04/16 04:52:45;;;;;;;40.88;22.85;;;9.40;99.90;;;;;;6259025;28;20052;-83
2023/04/16 04:55:48;;;;;;;33.55;21.98;;;9.40;99.90;;;;;;6258519;28;20046;-83
2023/04/16 04:58:50;;;;;;;43.05;24.83;;;9.40;99.90;;;;;;6259736;28;20041;-83
2023/04/16 05:01:52;;;;;;;39.38;22.13;;;9.40;99.90;;;;;;6261560;28;20082;-79
2023/04/16 05:04:54;;;;;;;43.42;22.58;;;9.40;99.90;;;;;;6272174;28;20038;-80
2023/04/16 05:07:55;;;;;;;34.15;20.48;;;9.40;99.90;;;;;;6268700;28;20053;-83
2023/04/16 05:10:59;;;;;;;37.38;21.58;;;9.40;99.90;;;;;;6266805;28;20045;-80
2023/04/16 05:14:00;;;;;;;37.92;21.40;;;9.40;99.90;;;;;;6261493;28;20455;-82
2023/04/16 05:17:02;;;;;;;36.78;19.70;;;9.40;99.90;;;;;;6255935;28;20069;-84
2023/04/16 05:20:05;;;;;;;34.72;21.65;;;9.40;99.90;;;;;;6256065;28;20045;-84
2023/04/16 05:23:06;;;;;;;39.95;20.15;;;9.50;99.90;;;;;;6255142;28;20052;-84
2023/04/16 05:26:09;;;;;;;40.55;20.83;;;9.50;99.90;;;;;;6254924;28;20049;-83
2023/04/16 05:29:11;;;;;;;38.72;21.80;;;9.40;99.90;;;;;;6255469;28;20058;-83
2023/04/16 05:32:13;;;;;;;38.22;21.00;;;9.40;99.90;;;;;;6255678;28;20060;-83
2023/04/16 05:35:14;;;;;;;39.90;21.75;;;9.50;99.90;;;;;;6254778;28;20053;-83
2023/04/16 05:38:16;;;;;;;37.70;22.45;;;9.40;99.90;;;;;;6258858;28;20113;-82
2023/04/16 05:41:19;;;;;;;40.15;19.70;;;9.40;99.90;;;;;;6255641;28;20065;-83
2023/04/16 05:44:21;;;;;;;37.50;19.67;;;9.40;99.90;;;;;;6254544;28;20145;-83
2023/04/16 05:47:22;;;;;;;37.67;21.67;;;9.40;99.90;;;;;;6254502;28;20049;-83
2023/04/16 05:50:24;;;;;;;35.30;21.60;;;9.40;99.90;;;;;;6253691;28;20372;-82
2023/04/16 05:53:26;;;;;;;39.17;20.80;;;9.40;99.90;;;;;;6254518;28;20060;-83
2023/04/16 05:56:29;;;;;;;37.22;19.98;;;9.40;99.90;;;;;;6253709;28;20041;-83
2023/04/16 05:59:30;;;;;;;36.20;19.52;;;9.40;99.90;;;;;;6253935;28;20129;-83
2023/04/16 06:02:32;;;;;;;43.65;23.20;;;9.40;99.90;;;;;;6253708;28;20063;-83
2023/04/16 06:05:34;;;;;;;39.30;21.23;;;9.50;99.90;;;;;;6254196;28;20046;-84
2023/04/16 06:08:35;;;;;;;36.03;21.98;;;9.50;99.90;;;;;;6254316;28;20048;-84
2023/04/16 06:11:38;;;;;;;33.72;17.02;;;9.50;99.90;;;;;;6254201;28;20049;-84
2023/04/16 06:14:40;;;;;;;31.02;18.25;;;9.50;99.90;;;;;;6253536;28;20041;-84
2023/04/16 06:17:42;;;;;;;34.75;18.95;;;9.50;99.90;;;;;;6253919;28;20046;-83
2023/04/16 06:20:43;;;;;;;36.58;20.83;;;9.50;99.90;;;;;;6254795;28;20050;-83
2023/04/16 06:23:45;;;;;;;35.33;20.85;;;9.50;99.90;;;;;;6252674;28;20041;-83
2023/04/16 06:26:48;;;;;;;32.33;21.15;;;9.60;99.90;;;;;;6253824;28;20048;-83
2023/04/16 06:29:50;;;;;;;32.47;19.48;;;9.60;99.90;;;;;;6255188;28;20045;-82
2023/04/16 06:32:52;;;;;;;32.95;18.23;;;9.60;99.90;;;;;;6253628;28;20100;-82
2023/04/16 06:35:54;;;;;;;38.67;19.25;;;9.70;99.90;;;;;;6253831;28;20053;-84
2023/04/16 06:38:56;;;;;;;35.95;23.17;;;9.70;99.90;;;;;;6253732;28;20046;-83
2023/04/16 06:41:59;;;;;;;34.30;23.90;;;9.70;99.90;;;;;;6254212;28;20056;-82
2023/04/16 06:45:01;;;;;;;36.65;20.05;;;9.80;99.90;;;;;;6225488;28;20048;-83
2023/04/16 06:48:03;;;;;;;30.85;19.73;;;9.80;99.90;;;;;;6258849;28;20045;-83
2023/04/16 06:51:05;;;;;;;29.25;18.30;;;9.80;99.90;;;;;;6248296;28;20052;-83
2023/04/16 06:54:07;;;;;;;32.08;18.77;;;9.90;99.90;;;;;;6245597;28;20484;-83
2023/04/16 06:57:10;;;;;;;29.13;17.70;;;9.90;99.90;;;;;;6277366;28;20060;-84
2023/04/16 07:00:12;;;;;;;27.30;15.68;;;9.90;99.90;;;;;;6257574;28;20045;-82
2023/04/16 07:03:14;;;;;;;24.13;16.38;;;10.00;99.90;;;;;;6255147;28;20052;-82
2023/04/16 07:06:16;;;;;;;28.15;16.33;;;10.00;99.90;;;;;;6254444;28;20045;-83
2023/04/16 07:09:17;;;;;;;23.90;15.70;;;10.00;99.90;;;;;;6254766;28;21385;-83
2023/04/16 07:12:21;;;;;;;26.70;17.70;;;10.00;99.90;;;;;;6250208;28;20066;-82
2023/04/16 07:15:23;;;;;;;28.38;16.80;;;10.00;99.90;;;;;;6253933;28;20491;-82
2023/04/16 07:18:24;;;;;;;24.83;15.98;;;10.10;99.90;;;;;;6252549;28;20053;-82
2023/04/16 07:21:26;;;;;;;19.67;13.75;;;10.20;99.90;;;;;;6251586;28;20049;-82
2023/04/16 07:24:28;;;;;;;24.02;14.10;;;10.20;99.90;;;;;;6248656;28;20149;-83
2023/04/16 07:27:31;;;;;;;20.92;16.02;;;10.30;99.90;;;;;;6257044;28;20148;-82
2023/04/16 07:30:34;;;;;;;25.08;14.45;;;10.40;99.90;;;;;;6254897;28;20052;-82
2023/04/16 07:33:36;;;;;;;34.30;16.42;;;10.40;99.90;;;;;;6252661;28;20473;-83
2023/04/16 07:36:38;;;;;;;20.60;13.25;;;10.40;99.90;;;;;;6256274;28;20597;-83
2023/04/16 07:39:39;;;;;;;24.33;13.88;;;10.50;99.90;;;;;;6252895;28;20045;-83
2023/04/16 07:42:43;;;;;;;17.70;12.30;;;10.40;99.90;;;;;;6255143;28;20088;-83
2023/04/16 07:45:44;;;;;;;22.05;13.43;;;10.40;99.90;;;;;;6254680;28;20051;-83
2023/04/16 07:48:46;;;;;;;20.40;13.05;;;10.30;99.90;;;;;;6251436;28;20052;-84
2023/04/16 07:51:48;;;;;;;23.13;13.93;;;10.30;99.90;;;;;;6255220;28;20045;-81
2023/04/16 07:54:50;;;;;;;16.38;11.82;;;10.30;99.90;;;;;;6255410;28;20125;-81
2023/04/16 07:57:53;;;;;;;21.70;13.02;;;10.30;99.90;;;;;;6253353;28;20042;-81
2023/04/16 08:00:55;;;;;;;26.73;16.33;;;10.30;99.90;;;;;;6252234;28;20424;-82
2023/04/16 08:03:57;;;;;;;23.23;14.35;;;10.40;99.90;;;;;;6249882;28;20048;-81
2023/04/16 08:06:59;;;;;;;22.63;14.05;;;10.40;99.90;;;;;;6252146;28;20052;-80
2023/04/16 08:10:01;;;;;;;24.98;15.68;;;10.40;99.90;;;;;;6255163;28;20087;-81
2023/04/16 08:13:04;;;;;;;20.35;14.07;;;10.40;99.90;;;;;;6254334;28;20508;-82
2023/04/16 08:16:06;;;;;;;17.40;11.75;;;10.40;99.90;;;;;;6256118;28;20054;-82
2023/04/16 08:19:08;;;;;;;26.00;14.43;;;10.40;99.90;;;;;;6252176;28;20129;-81
2023/04/16 08:22:10;;;;;;;18.08;12.38;;;10.50;99.90;;;;;;6254630;28;20045;-84
2023/04/16 08:25:11;;;;;;;14.75;9.55;;;10.50;99.90;;;;;;6252965;28;20064;-83
2023/04/16 08:28:14;;;;;;;18.13;11.48;;;10.60;99.90;;;;;;6252347;28;20048;-83
2023/04/16 08:31:16;;;;;;;14.18;10.02;;;10.70;99.90;;;;;;6250849;28;20060;-83
2023/04/16 08:34:18;;;;;;;16.10;10.80;;;10.80;99.90;;;;;;6253577;28;20421;-82
2023/04/16 08:37:20;;;;;;;13.07;10.27;;;10.80;99.90;;;;;;6251853;28;20050;-84
2023/04/16 08:40:21;;;;;;;21.52;19.23;;;10.80;99.90;;;;;;6252830;28;20494;-83
2023/04/16 08:43:25;;;;;;;13.85;10.48;;;10.90;99.90;;;;;;6250660;28;20487;-82
2023/04/16 08:46:29;;;;;;;14.60;11.95;;;10.90;99.90;;;;;;6249634;28;20064;-83
2023/04/16 08:49:35;;;;;;;13.88;10.48;;;10.90;99.90;;;;;;6251750;28;20052;-83
2023/04/16 08:52:42;;;;;;;10.90;9.10;;;11.00;99.90;;;;;;6252290;28;20055;-84
2023/04/16 08:55:47;;;;;;;11.37;9.13;;;11.00;99.90;;;;;;6252849;28;20045;-83
2023/04/16 08:58:53;;;;;;;13.38;11.10;;;11.10;99.90;;;;;;6255308;28;20144;-83
2023/04/16 09:01:57;;;;;;;12.68;8.80;;;11.20;99.90;;;;;;6248616;28;20112;-84
2023/04/16 09:05:00;;;;;;;9.10;7.75;;;11.30;99.90;;;;;;6252886;28;20045;-84
2023/04/16 09:08:01;;;;;;;13.77;9.23;;;11.40;99.90;;;;;;6253416;28;20037;-82
2023/04/16 09:11:04;;;;;;;11.40;9.13;;;11.40;99.90;;;;;;6250805;28;20052;-82
2023/04/16 09:14:09;;;;;;;16.15;12.35;;;11.50;99.90;;;;;;6251744;28;20045;-82
2023/04/16 09:17:13;;;;;;;23.63;18.50;;;11.50;99.90;;;;;;6249284;28;20496;-83
2023/04/16 09:20:15;;;;;;;11.30;8.45;;;11.50;99.90;;;;;;6251724;28;20064;-83
2023/04/16 09:23:17;;;;;;;13.02;8.52;;;11.50;99.90;;;;;;6252026;28;20056;-85
2023/04/16 09:26:20;;;;;;;12.50;10.23;;;11.40;99.90;;;;;;6255077;28;20067;-85
2023/04/16 09:29:35;;;;;;;12.80;9.35;;;11.40;99.90;;;;;;6253661;28;20131;-82
2023/04/16 09:32:37;;;;;;;10.40;9.02;;;11.40;99.90;;;;;;6251445;28;20053;-81
2023/04/16 09:35:46;;;;;;;25.40;23.27;;;11.40;99.90;;;;;;6255236;28;20056;-81
2023/04/16 09:38:48;;;;;;;22.00;20.00;;;11.40;99.90;;;;;;6255353;28;20061;-81
2023/04/16 09:41:55;;;;;;;15.10;13.48;;;11.40;99.90;;;;;;6248186;28;20045;-82
2023/04/16 09:44:58;;;;;;;22.25;20.27;;;11.40;99.90;;;;;;6248429;28;20440;-81
2023/04/16 09:48:04;;;;;;;16.25;14.52;;;11.30;99.90;;;;;;6251818;28;20049;-81
2023/04/16 09:51:06;;;;;;;14.55;11.60;;;11.30;99.90;;;;;;6248220;28;20069;-82
2023/04/16 09:54:09;;;;;;;12.68;9.65;;;11.30;99.90;;;;;;6248722;28;20061;-80
2023/04/16 09:57:11;;;;;;;11.52;8.85;;;11.30;99.90;;;;;;6249304;28;20885;-79
2023/04/16 10:00:18;;;;;;;16.48;10.27;;;11.30;99.90;;;;;;6250206;28;20041;-81
2023/04/16 10:03:29;;;;;;;17.27;12.60;;;11.40;99.90;;;;;;6245455;28;20053;-81
2023/04/16 10:06:31;;;;;;;35.75;27.15;;;11.40;99.90;;;;;;6246652;28;20056;-82
2023/04/16 10:09:37;;;;;;;28.10;19.33;;;11.40;99.90;;;;;;6249803;28;20075;-82
2023/04/16 10:12:38;;;;;;;27.15;24.17;;;11.40;99.90;;;;;;6246208;28;20126;-82
2023/04/16 10:15:41;;;;;;;23.88;21.15;;;11.40;99.90;;;;;;6247106;28;20068;-82
2023/04/16 10:18:45;;;;;;;15.25;13.48;;;11.40;99.90;;;;;;6248433;28;20041;-81
2023/04/16 10:21:47;;;;;;;13.70;10.30;;;11.50;99.90;;;;;;6249920;28;20180;-81
2023/04/16 10:24:50;;;;;;;13.13;10.43;;;11.50;99.90;;;;;;6245981;28;20033;-81
2023/04/16 10:27:52;;;;;;;16.63;11.30;;;11.60;99.90;;;;;;6244802;28;20045;-82
2023/04/16 10:30:57;;;;;;;14.25;9.98;;;11.60;99.90;;;;;;6245396;28;20049;-82
2023/04/16 10:34:00;;;;;;;14.07;8.88;;;11.60;99.90;;;;;;6249114;28;20041;-81
2023/04/16 10:37:01;;;;;;;13.43;9.32;;;11.70;99.90;;;;;;6251423;28;20041;-81
2023/04/16 10:40:22;;;;;;;13.00;9.45;;;11.70;99.90;;;;;;6249923;28;20064;-80
2023/04/16 10:43:25;;;;;;;14.48;8.82;;;11.80;99.90;;;;;;6248776;28;20060;-82
2023/04/16 10:46:33;;;;;;;13.65;8.63;;;11.80;99.90;;;;;;6250548;28;20072;-82
2023/04/16 10:49:35;;;;;;;12.82;8.65;;;11.80;99.90;;;;;;6248040;28;20140;-86
2023/04/16 10:52:37;;;;;;;14.20;8.60;;;11.90;99.90;;;;;;6251215;28;20072;-83
2023/04/16 10:55:39;;;;;;;12.13;9.57;;;11.90;99.90;;;;;;6249432;28;20068;-81
2023/04/16 10:58:41;;;;;;;12.10;8.80;;;11.90;99.90;;;;;;6251629;28;20400;-82
2023/04/16 11:01:45;;;;;;;14.60;8.63;;;12.00;99.90;;;;;;6252269;28;20052;-82
2023/04/16 11:04:48;;;;;;;11.85;8.75;;;12.10;99.90;;;;;;6254601;28;20045;-82
2023/04/16 11:07:50;;;;;;;12.10;7.57;;;12.10;99.90;;;;;;6253719;28;20041;-83
2023/04/16 11:10:52;;;;;;;12.98;8.68;;;12.10;99.90;;;;;;6251843;28;20038;-83
2023/04/16 11:13:56;;;;;;;12.07;8.75;;;12.10;99.90;;;;;;6252583;28;20045;-82
2023/04/16 11:17:03;;;;;;;12.48;7.45;;;12.30;99.90;;;;;;6250741;28;20045;-82
2023/04/16 11:20:06;;;;;;;11.27;7.45;;;12.30;99.90;;;;;;6251692;28;20068;-81
2023/04/16 11:23:11;;;;;;;12.07;8.63;;;12.30;99.90;;;;;;6252331;28;20053;-82
2023/04/16 11:26:21;;;;;;;10.40;8.05;;;12.20;99.90;;;;;;6249092;28;20252;-81
2023/04/16 11:29:23;;;;;;;14.63;9.50;;;12.10;99.90;;;;;;6246484;28;20044;-81
2023/04/16 11:32:26;;;;;;;12.20;8.60;;;12.00;99.90;;;;;;6247388;28;20049;-81
2023/04/16 11:35:28;;;;;;;21.00;11.73;;;12.00;99.90;;;;;;6253215;28;20069;-84
2023/04/16 11:38:39;;;;;;;11.80;8.50;;;12.00;99.90;;;;;;6253109;28;20042;-83
2023/04/16 11:41:45;;;;;;;15.35;8.93;;;12.10;99.90;;;;;;6254124;28;20064;-81
2023/04/16 11:44:46;;;;;;;10.15;8.25;;;12.20;99.90;;;;;;6251393;28;20045;-81
2023/04/16 11:47:51;;;;;;;15.48;11.38;;;12.30;99.90;;;;;;6253507;28;20037;-80
2023/04/16 11:50:56;;;;;;;10.77;8.15;;;12.30;99.90;;;;;;6252915;28;20527;-81
2023/04/16 11:53:58;;;;;;;12.30;7.75;;;12.10;99.90;;;;;;6251793;28;20042;-81
2023/04/16 11:57:00;;;;;;;15.25;10.20;;;12.10;99.90;;;;;;6252488;28;20041;-80
2023/04/16 12:00:05;;;;;;;14.32;9.43;;;12.00;99.90;;;;;;6254141;28;20056;-79
2023/04/16 12:03:08;;;;;;;12.75;8.48;;;12.00;99.90;;;;;;6258195;28;20352;-79
2023/04/16 12:06:10;;;;;;;10.27;7.95;;;12.00;99.90;;;;;;6254241;28;20057;-81
2023/04/16 12:09:25;;;;;;;32.38;21.67;;;12.00;99.90;;;;;;6258125;28;20055;-82
2023/04/16 12:12:29;;;;;;;19.13;13.73;;;12.00;99.90;;;;;;6254640;28;20064;-79
2023/04/16 12:15:44;;;;;;;23.17;17.10;;;12.10;99.90;;;;;;6255965;28;20044;-80
2023/04/16 12:19:02;;;;;;;12.48;10.38;;;11.90;99.90;;;;;;6253507;28;20123;-82
2023/04/16 12:22:04;;;;;;;13.85;10.70;;;11.90;99.90;;;;;;6255639;28;20045;-82
2023/04/16 12:25:07;;;;;;;15.98;9.20;;;11.90;99.90;;;;;;6260292;28;20061;-80
2023/04/16 12:28:09;;;;;;;11.18;8.82;;;12.00;99.90;;;;;;6250140;28;20490;-80
2023/04/16 12:31:11;;;;;;;13.80;9.15;;;12.10;99.90;;;;;;6251701;28;20136;-81
2023/04/16 12:34:15;;;;;;;14.65;8.70;;;12.10;99.90;;;;;;6250573;28;20168;-81
2023/04/16 12:37:16;;;;;;;9.73;8.23;;;12.40;99.90;;;;;;6250582;28;20044;-80
2023/04/16 12:40:18;;;;;;;8.82;7.60;;;12.50;99.90;;;;;;6251096;28;20060;-80
2023/04/16 12:43:20;;;;;;;10.82;8.70;;;12.40;99.90;;;;;;6252285;28;20049;-80
2023/04/16 12:46:22;;;;;;;11.80;8.85;;;12.50;99.90;;;;;;6252507;28;20353;-81
2023/04/16 12:49:25;;;;;;;12.43;8.75;;;12.40;99.90;;;;;;6250941;28;20053;-81
2023/04/16 12:52:27;;;;;;;13.30;8.45;;;12.30;99.90;;;;;;6249974;28;20198;-80
2023/04/16 12:55:29;;;;;;;9.00;7.60;;;12.30;99.90;;;;;;6251106;28;20065;-80
2023/04/16 12:58:30;;;;;;;10.95;8.52;;;12.10;99.90;;;;;;6249903;28;20138;-82
2023/04/16 13:01:34;;;;;;;11.57;8.13;;;12.10;99.90;;;;;;6251274;28;20045;-81
2023/04/16 13:04:38;;;;;;;10.77;7.63;;;12.10;99.90;;;;;;6248659;28;20056;-81
2023/04/16 13:07:40;;;;;;;9.15;7.35;;;12.00;99.90;;;;;;6249954;28;20382;-81
2023/04/16 13:10:41;;;;;;;12.32;7.93;;;12.00;99.90;;;;;;6248725;28;20059;-80
2023/04/16 13:13:43;;;;;;;12.73;7.80;;;11.90;99.90;;;;;;6251001;28;20052;-80
2023/04/16 13:16:45;;;;;;;9.32;7.70;;;11.70;99.90;;;;;;6247190;28;20045;-82
2023/04/16 13:19:48;;;;;;;13.30;9.02;;;11.60;99.90;;;;;;6246500;28;20052;-83
2023/04/16 13:22:49;;;;;;;10.05;7.05;;;11.60;99.90;;;;;;6248291;28;20054;-82
2023/04/16 13:25:51;;;;;;;8.48;6.85;;;11.60;99.90;;;;;;6250856;28;20056;-82
2023/04/16 13:28:53;;;;;;;9.30;7.28;;;11.60;99.90;;;;;;6247936;28;20042;-83
2023/04/16 13:31:55;;;;;;;9.95;8.02;;;11.50;99.90;;;;;;6247161;28;20041;-81
2023/04/16 13:34:58;;;;;;;8.75;6.85;;;11.50;99.90;;;;;;6245777;28;20121;-81
2023/04/16 13:38:00;;;;;;;12.30;8.55;;;11.50;99.90;;;;;;6249645;28;20045;-81
2023/04/16 13:41:07;;;;;;;9.75;7.78;;;11.50;99.90;;;;;;6249658;28;20057;-83
2023/04/16 13:44:08;;;;;;;9.07;7.20;;;11.50;99.90;;;;;;6252056;28;20049;-79
2023/04/16 13:47:10;;;;;;;10.18;6.60;;;11.50;99.90;;;;;;6246521;28;20052;-81
2023/04/16 13:50:14;;;;;;;10.85;7.78;;;11.50;99.90;;;;;;6248276;28;20411;-82
2023/04/16 13:53:16;;;;;;;10.27;8.95;;;11.50;99.90;;;;;;6248511;28;20239;-82
2023/04/16 13:56:17;;;;;;;9.52;8.52;;;11.50;99.90;;;;;;6247970;28;20049;-80
2023/04/16 13:59:19;;;;;;;9.93;7.30;;;11.50;99.90;;;;;;6251111;28;20053;-81
2023/04/16 14:02:21;;;;;;;7.78;6.25;;;11.50;99.90;;;;;;6248579;28;20045;-81
2023/04/16 14:05:24;;;;;;;9.30;7.55;;;11.50;99.90;;;;;;6249230;28;20045;-80
2023/04/16 14:08:26;;;;;;;10.25;7.28;;;11.50;99.90;;;;;;6245295;28;20041;-81
2023/04/16 14:11:28;;;;;;;9.35;6.93;;;11.50;99.90;;;;;;6250917;28;20057;-81
2023/04/16 14:14:30;;;;;;;10.27;7.40;;;11.50;99.90;;;;;;6250254;28;20049;-78
2023/04/16 14:17:32;;;;;;;10.95;6.85;;;11.50;99.90;;;;;;6256465;28;20046;-79
2023/04/16 14:20:35;;;;;;;12.15;8.40;;;11.50;99.90;;;;;;6253612;28;20041;-78
2023/04/16 14:23:37;;;;;;;9.63;8.02;;;11.40;99.90;;;;;;6248634;28;20386;-79
2023/04/16 14:26:39;;;;;;;15.60;8.93;;;11.40;99.90;;;;;;6248310;28;20053;-79
2023/04/16 14:29:41;;;;;;;9.73;8.02;;;11.40;99.90;;;;;;6250495;28;20049;-81
2023/04/16 14:32:43;;;;;;;29.75;27.13;;;11.30;99.90;;;;;;6247826;28;20124;-78
2023/04/16 14:35:47;;;;;;;16.15;14.55;;;11.30;99.90;;;;;;6250039;28;20052;-80
2023/04/16 14:38:50;;;;;;;18.98;11.80;;;11.30;99.90;;;;;;6253544;28;20104;-80
2023/04/16 14:41:51;;;;;;;12.32;9.63;;;11.30;99.90;;;;;;6258562;28;20056;-79
2023/04/16 14:44:53;;;;;;;17.25;12.90;;;11.30;99.90;;;;;;6257187;28;20049;-79
2023/04/16 14:47:55;;;;;;;15.05;11.50;;;11.30;99.90;;;;;;6252311;28;20056;-80
2023/04/16 14:50:58;;;;;;;12.07;10.60;;;11.30;99.90;;;;;;6251267;28;20051;-81
2023/04/16 14:54:02;;;;;;;11.88;10.00;;;11.30;99.90;;;;;;6257678;28;20047;-81
2023/04/16 14:57:07;;;;;;;16.52;11.85;;;11.30;99.90;;;;;;6260312;28;20056;-78
2023/04/16 15:00:10;;;;;;;15.13;9.77;;;11.30;99.90;;;;;;6251047;28;20045;-79
2023/04/16 15:03:12;;;;;;;12.75;9.38;;;11.30;99.90;;;;;;6252463;28;20480;-80
2023/04/16 15:06:16;;;;;;;13.02;10.35;;;11.30;99.90;;;;;;6248479;28;20050;-80
2023/04/16 15:09:18;;;;;;;18.33;10.13;;;11.20;99.90;;;;;;6249290;28;20056;-80
2023/04/16 15:12:23;;;;;;;15.07;10.52;;;11.20;99.90;;;;;;6252435;28;20184;-83
2023/04/16 15:15:25;;;;;;;14.35;9.90;;;11.20;99.90;;;;;;6254407;28;20057;-81
2023/04/16 15:18:28;;;;;;;14.48;10.38;;;11.30;99.90;;;;;;6255907;28;20057;-82
2023/04/16 15:21:31;;;;;;;15.20;10.13;;;11.30;99.90;;;;;;6257888;28;20068;-80
2023/04/16 15:24:33;;;;;;;27.20;24.63;;;11.30;99.90;;;;;;6255909;28;20042;-81
2023/04/16 15:27:35;;;;;;;23.10;20.15;;;11.30;99.90;;;;;;6250689;28;20047;-82
2023/04/16 15:30:43;;;;;;;20.15;16.88;;;11.30;99.90;;;;;;6254763;28;20803;-83
2023/04/16 15:33:44;;;;;;;15.80;11.13;;;11.30;99.90;;;;;;6261112;28;20049;-81
2023/04/16 15:36:47;;;;;;;21.42;15.32;;;11.30;99.90;;;;;;6255099;28;20041;-82